^^
Station Historical Data
 
Daily Summary for April 21, 2018 Units:  English    Metric   Both
« Previous Day
Next Day »
Daily Weekly Monthly Yearly Custom
  Current: High: Low: Average:
Temperature: 61.7 °F 62.3 °F 35.8 °F 46.5 °F
Dew Point: 39.0 °F 42.6 °F 33.5 °F 37.3 °F
Humidity: 43% 93% 42% 74%
Wind Speed: 13.0mph 29.0mph 4.0mph 11.3mph
Wind Gust: 27.0mph 35.0mph - -
WindSSE - - SE
Pressure: 30.13 in 30.25 in 30.13 in -
Precipitation: 0.00 in      
Historical Graphs
 
 
Tabular Data for April 21, 2018
Time Temperature Dew Point Pressure Wind Wind Speed Wind Gust Humidity Rainfall Rate (Hourly) solar Conditions
00:04 41.3 °F 34.6 °F 30.25 in SE 7.0 mph 9.0 mph 77% 0.00 in 0 W/m2
00:09 41.3 °F 34.6 °F 30.25 in SE 6.0 mph 10.0 mph 77% 0.00 in 0 W/m2
00:14 41.0 °F 34.7 °F 30.25 in SE 8.0 mph 10.0 mph 78% 0.00 in 0 W/m2
00:19 41.1 °F 34.8 °F 30.25 in SE 7.0 mph 10.0 mph 78% 0.00 in 0 W/m2
00:24 40.9 °F 34.6 °F 30.25 in SE 6.0 mph 10.0 mph 78% 0.00 in 0 W/m2
00:29 40.8 °F 34.8 °F 30.25 in SE 9.0 mph 10.0 mph 79% 0.00 in 0 W/m2
00:34 40.6 °F 34.9 °F 30.25 in SE 7.0 mph 10.0 mph 80% 0.00 in 0 W/m2
00:39 40.6 °F 34.9 °F 30.25 in SSE 8.0 mph 10.0 mph 80% 0.00 in 0 W/m2
00:44 40.5 °F 34.8 °F 30.25 in SSE 9.0 mph 11.0 mph 80% 0.00 in 0 W/m2
00:49 40.3 °F 34.9 °F 30.25 in SE 9.0 mph 11.0 mph 81% 0.00 in 0 W/m2
00:54 40.2 °F 34.8 °F 30.25 in SE 8.0 mph 11.0 mph 81% 0.00 in 0 W/m2
00:59 40.2 °F 34.8 °F 30.25 in SE 8.0 mph 11.0 mph 81% 0.00 in 0 W/m2
01:04 40.1 °F 34.7 °F 30.25 in SE 9.0 mph 11.0 mph 81% 0.00 in 0 W/m2
01:09 40.1 °F 34.7 °F 30.25 in SE 10.0 mph 11.0 mph 81% 0.00 in 0 W/m2
01:14 40.0 °F 34.9 °F 30.25 in SE 9.0 mph 12.0 mph 82% 0.00 in 0 W/m2
01:19 39.8 °F 34.8 °F 30.25 in SE 10.0 mph 12.0 mph 82% 0.00 in 0 W/m2
01:24 39.6 °F 34.6 °F 30.25 in SE 8.0 mph 12.0 mph 82% 0.00 in 0 W/m2
01:29 39.4 °F 34.7 °F 30.25 in SE 9.0 mph 11.0 mph 83% 0.00 in 0 W/m2
01:34 39.4 °F 34.7 °F 30.25 in SSE 9.0 mph 11.0 mph 83% 0.00 in 0 W/m2
01:39 39.2 °F 34.5 °F 30.25 in SE 7.0 mph 11.0 mph 83% 0.00 in 0 W/m2
01:44 39.0 °F 34.3 °F 30.25 in SE 7.0 mph 10.0 mph 83% 0.00 in 0 W/m2
01:49 38.8 °F 34.4 °F 30.25 in SE 5.0 mph 10.0 mph 84% 0.00 in 0 W/m2
01:54 38.8 °F 34.4 °F 30.25 in SE 6.0 mph 9.0 mph 84% 0.00 in 0 W/m2
01:59 38.6 °F 34.2 °F 30.25 in SE 7.0 mph 8.0 mph 84% 0.00 in 0 W/m2
02:04 38.5 °F 34.4 °F 30.25 in SE 9.0 mph 9.0 mph 85% 0.00 in 0 W/m2
02:09 38.4 °F 34.3 °F 30.25 in SE 6.0 mph 9.0 mph 85% 0.00 in 0 W/m2
02:14 38.3 °F 34.2 °F 30.25 in SE 8.0 mph 9.0 mph 85% 0.00 in 0 W/m2
02:19 38.4 °F 34.6 °F 30.25 in SE 6.0 mph 9.0 mph 86% 0.00 in 0 W/m2
02:29 38.6 °F 34.8 °F 30.25 in SE 6.0 mph 7.0 mph 86% 0.00 in 0 W/m2
02:34 38.5 °F 34.7 °F 30.24 in SE 6.0 mph 8.0 mph 86% 0.00 in 0 W/m2
02:39 38.4 °F 34.6 °F 30.24 in SE 7.0 mph 8.0 mph 86% 0.00 in 0 W/m2
02:44 38.3 °F 34.5 °F 30.24 in SE 6.0 mph 8.0 mph 86% 0.00 in 0 W/m2
02:49 38.0 °F 34.2 °F 30.24 in ESE 7.0 mph 8.0 mph 86% 0.00 in 0 W/m2
02:54 38.0 °F 34.5 °F 30.24 in ESE 7.0 mph 8.0 mph 87% 0.00 in 0 W/m2
02:59 37.9 °F 34.4 °F 30.24 in ESE 7.0 mph 8.0 mph 87% 0.00 in 0 W/m2
03:04 37.8 °F 34.3 °F 30.24 in ESE 5.0 mph 8.0 mph 87% 0.00 in 0 W/m2
03:09 37.7 °F 34.2 °F 30.24 in ESE 7.0 mph 8.0 mph 87% 0.00 in 0 W/m2
03:10 37.6 °F 34.4 °F 30.24 in ESE 5.0 mph 8.0 mph 88% 0.00 in 0 W/m2
03:15 37.6 °F 34.4 °F 30.24 in SE 4.0 mph 7.0 mph 88% 0.00 in 0 W/m2
03:20 37.3 °F 34.1 °F 30.24 in SE 6.0 mph 7.0 mph 88% 0.00 in 0 W/m2
03:25 37.2 °F 34.0 °F 30.24 in SE 5.0 mph 7.0 mph 88% 0.00 in 0 W/m2
03:30 37.1 °F 33.9 °F 30.24 in SE 6.0 mph 7.0 mph 88% 0.00 in 0 W/m2
03:35 36.9 °F 34.0 °F 30.24 in SE 4.0 mph 6.0 mph 89% 0.00 in 0 W/m2
03:40 37.0 °F 34.1 °F 30.24 in ESE 4.0 mph 6.0 mph 89% 0.00 in 0 W/m2
03:45 37.1 °F 34.2 °F 30.24 in ESE 5.0 mph 6.0 mph 89% 0.00 in 0 W/m2
03:50 37.2 °F 34.5 °F 30.24 in ESE 5.0 mph 7.0 mph 90% 0.00 in 0 W/m2
03:55 37.2 °F 34.3 °F 30.23 in ESE 4.0 mph 8.0 mph 89% 0.00 in 0 W/m2
04:00 37.1 °F 34.2 °F 30.23 in SE 5.0 mph 8.0 mph 89% 0.00 in 0 W/m2
04:05 36.9 °F 34.0 °F 30.23 in SE 4.0 mph 7.0 mph 89% 0.00 in 0 W/m2
04:10 36.7 °F 33.8 °F 30.23 in SE 4.0 mph 6.0 mph 89% 0.00 in 0 W/m2
04:15 36.5 °F 33.6 °F 30.23 in SE 5.0 mph 6.0 mph 89% 0.00 in 0 W/m2
04:20 36.5 °F 33.8 °F 30.23 in SE 6.0 mph 7.0 mph 90% 0.00 in 0 W/m2
04:25 36.5 °F 33.8 °F 30.23 in SE 4.0 mph 7.0 mph 90% 0.00 in 0 W/m2
04:30 36.3 °F 33.6 °F 30.23 in SE 4.0 mph 7.0 mph 90% 0.00 in 0 W/m2
04:35 36.2 °F 33.5 °F 30.23 in SE 4.0 mph 6.0 mph 90% 0.00 in 0 W/m2
04:40 36.3 °F 33.9 °F 30.24 in ESE 4.0 mph 6.0 mph 91% 0.00 in 0 W/m2
04:45 36.5 °F 34.1 °F 30.24 in ESE 5.0 mph 7.0 mph 91% 0.00 in 0 W/m2
04:50 36.6 °F 34.2 °F 30.24 in ESE 7.0 mph 8.0 mph 91% 0.00 in 0 W/m2
04:55 36.6 °F 34.2 °F 30.24 in SE 6.0 mph 9.0 mph 91% 0.00 in 0 W/m2
05:00 36.5 °F 34.1 °F 30.24 in SE 6.0 mph 9.0 mph 91% 0.00 in 0 W/m2
05:05 36.4 °F 34.0 °F 30.24 in SE 7.0 mph 9.0 mph 91% 0.00 in 0 W/m2
05:10 36.2 °F 33.8 °F 30.24 in ESE 8.0 mph 9.0 mph 91% 0.00 in 0 W/m2
05:15 36.0 °F 33.6 °F 30.24 in ESE 5.0 mph 9.0 mph 91% 0.00 in 0 W/m2
05:20 35.9 °F 33.5 °F 30.24 in ESE 8.0 mph 9.0 mph 91% 0.00 in 0 W/m2
05:25 36.0 °F 33.9 °F 30.24 in SE 7.0 mph 9.0 mph 92% 0.00 in 0 W/m2
05:30 36.0 °F 33.9 °F 30.24 in ESE 7.0 mph 10.0 mph 92% 0.00 in 0 W/m2
05:35 35.8 °F 33.7 °F 30.24 in SE 5.0 mph 10.0 mph 92% 0.00 in 0 W/m2
05:40 36.0 °F 33.9 °F 30.24 in SE 8.0 mph 8.0 mph 92% 0.00 in 0 W/m2
05:42 36.0 °F 33.9 °F 30.24 in SE 7.0 mph 8.0 mph 92% 0.00 in 0 W/m2
05:47 36.3 °F 34.2 °F 30.24 in SE 7.0 mph 9.0 mph 92% 0.00 in 0 W/m2
05:52 36.3 °F 34.2 °F 30.24 in SE 7.0 mph 9.0 mph 92% 0.00 in 0 W/m2
05:57 36.3 °F 34.2 °F 30.24 in ESE 7.0 mph 9.0 mph 92% 0.00 in 0 W/m2
06:02 36.3 °F 34.2 °F 30.24 in SE 6.0 mph 9.0 mph 92% 0.00 in 0 W/m2
06:07 36.2 °F 34.1 °F 30.24 in SE 7.0 mph 9.0 mph 92% 0.00 in 0 W/m2
06:12 36.1 °F 34.0 °F 30.24 in SE 6.0 mph 9.0 mph 92% 0.00 in 0 W/m2
06:17 36.1 °F 34.0 °F 30.24 in SE 7.0 mph 9.0 mph 92% 0.00 in 0 W/m2
06:22 36.3 °F 34.5 °F 30.24 in SE 7.0 mph 10.0 mph 93% 0.00 in 0 W/m2
06:27 36.2 °F 34.1 °F 30.24 in ESE 9.0 mph 10.0 mph 92% 0.00 in 0 W/m2
06:32 36.0 °F 34.2 °F 30.24 in SE 7.0 mph 9.0 mph 93% 0.00 in 0 W/m2
06:37 36.1 °F 34.3 °F 30.24 in ESE 8.0 mph 9.0 mph 93% 0.00 in 0 W/m2
06:42 36.3 °F 34.5 °F 30.25 in ESE 7.0 mph 9.0 mph 93% 0.00 in 0 W/m2
06:47 36.5 °F 34.7 °F 30.25 in ESE 10.0 mph 10.0 mph 93% 0.00 in 5 W/m2
06:52 36.8 °F 35.0 °F 30.25 in ESE 9.0 mph 10.0 mph 93% 0.00 in 7 W/m2
06:57 37.2 °F 35.4 °F 30.25 in ESE 9.0 mph 10.0 mph 93% 0.00 in 11 W/m2
07:02 37.4 °F 35.6 °F 30.24 in East 8.0 mph 11.0 mph 93% 0.00 in 12 W/m2
07:07 37.5 °F 35.7 °F 30.25 in SE 6.0 mph 11.0 mph 93% 0.00 in 14 W/m2
07:12 37.6 °F 35.5 °F 30.25 in ESE 7.0 mph 11.0 mph 92% 0.00 in 16 W/m2
07:17 37.5 °F 35.4 °F 30.25 in East 10.0 mph 10.0 mph 92% 0.00 in 19 W/m2
07:22 37.7 °F 35.9 °F 30.24 in ESE 10.0 mph 10.0 mph 93% 0.00 in 19 W/m2
07:27 38.0 °F 35.9 °F 30.24 in ESE 9.0 mph 10.0 mph 92% 0.00 in 21 W/m2
07:32 38.0 °F 35.9 °F 30.24 in East 9.0 mph 11.0 mph 92% 0.00 in 23 W/m2
07:37 37.9 °F 35.8 °F 30.24 in East 8.0 mph 11.0 mph 92% 0.00 in 26 W/m2
07:42 37.9 °F 35.8 °F 30.24 in ESE 8.0 mph 11.0 mph 92% 0.00 in 30 W/m2
07:47 38.2 °F 36.1 °F 30.25 in ESE 7.0 mph 13.0 mph 92% 0.00 in 26 W/m2
07:52 38.4 °F 36.3 °F 30.25 in ESE 7.0 mph 13.0 mph 92% 0.00 in 26 W/m2
07:57 38.4 °F 36.3 °F 30.25 in ESE 5.0 mph 11.0 mph 92% 0.00 in 26 W/m2
08:02 38.1 °F 35.7 °F 30.24 in ESE 7.0 mph 9.0 mph 91% 0.00 in 30 W/m2
08:07 37.8 °F 35.4 °F 30.24 in ESE 4.0 mph 8.0 mph 91% 0.00 in 30 W/m2
08:12 37.8 °F 35.7 °F 30.24 in ESE 5.0 mph 8.0 mph 92% 0.00 in 35 W/m2
08:17 37.9 °F 35.8 °F 30.24 in ESE 4.0 mph 8.0 mph 92% 0.00 in 53 W/m2
08:22 38.3 °F 36.2 °F 30.24 in ESE 8.0 mph 9.0 mph 92% 0.00 in 76 W/m2
08:27 39.5 °F 37.6 °F 30.24 in ESE 8.0 mph 9.0 mph 93% 0.00 in 232 W/m2
08:32 40.6 °F 38.7 °F 30.24 in East 8.0 mph 11.0 mph 93% 0.00 in 244 W/m2
08:37 41.4 °F 39.3 °F 30.24 in ESE 8.0 mph 11.0 mph 92% 0.00 in 260 W/m2
08:42 42.0 °F 39.6 °F 30.24 in SE 6.0 mph 11.0 mph 91% 0.00 in 276 W/m2
08:47 42.8 °F 40.4 °F 30.24 in SE 8.0 mph 11.0 mph 91% 0.00 in 292 W/m2
08:52 43.4 °F 40.7 °F 30.24 in SSE 10.0 mph 10.0 mph 90% 0.00 in 309 W/m2
08:57 43.8 °F 40.8 °F 30.24 in SE 9.0 mph 11.0 mph 89% 0.00 in 323 W/m2
09:02 44.2 °F 42.0 °F 30.23 in SE 5.0 mph 12.0 mph 92% 0.00 in 338 W/m2
09:07 44.7 °F 41.1 °F 30.23 in SE 9.0 mph 13.0 mph 87% 0.00 in 352 W/m2
09:12 45.1 °F 40.9 °F 30.23 in SE 7.0 mph 13.0 mph 85% 0.00 in 369 W/m2
09:17 45.5 °F 41.3 °F 30.23 in SE 8.0 mph 12.0 mph 85% 0.00 in 385 W/m2
09:22 45.8 °F 41.2 °F 30.23 in SE 9.0 mph 13.0 mph 84% 0.00 in 401 W/m2
09:27 46.3 °F 41.4 °F 30.22 in SE 12.0 mph 13.0 mph 83% 0.00 in 417 W/m2
09:32 46.7 °F 41.5 °F 30.22 in SE 11.0 mph 13.0 mph 82% 0.00 in 429 W/m2
09:37 47.7 °F 42.2 °F 30.22 in SE 11.0 mph 13.0 mph 81% 0.00 in 443 W/m2
09:42 48.0 °F 42.1 °F 30.22 in SSE 7.0 mph 15.0 mph 80% 0.00 in 459 W/m2
09:47 48.2 °F 41.7 °F 30.22 in SE 9.0 mph 15.0 mph 78% 0.00 in 471 W/m2
09:52 48.7 °F 42.1 °F 30.22 in SSE 11.0 mph 15.0 mph 78% 0.00 in 489 W/m2
09:57 49.5 °F 42.2 °F 30.22 in SSE 11.0 mph 16.0 mph 76% 0.00 in 501 W/m2
10:02 50.2 °F 42.6 °F 30.21 in SSE 11.0 mph 18.0 mph 75% 0.00 in 515 W/m2
10:07 50.8 °F 42.5 °F 30.21 in SSE 11.0 mph 18.0 mph 73% 0.00 in 527 W/m2
10:12 51.1 °F 42.0 °F 30.21 in South 11.0 mph 16.0 mph 71% 0.00 in 540 W/m2
10:17 51.7 °F 41.9 °F 30.21 in SSE 13.0 mph 18.0 mph 69% 0.00 in 554 W/m2
10:22 52.7 °F 42.4 °F 30.20 in SSE 8.0 mph 18.0 mph 68% 0.00 in 570 W/m2
10:27 53.2 °F 41.7 °F 30.20 in South 16.0 mph 19.0 mph 65% 0.00 in 589 W/m2
10:32 53.6 °F 41.7 °F 30.20 in SSE 12.0 mph 21.0 mph 64% 0.00 in 591 W/m2
10:37 53.8 °F 41.5 °F 30.20 in South 17.0 mph 22.0 mph 63% 0.00 in 599 W/m2
10:42 53.8 °F 41.1 °F 30.20 in SSE 13.0 mph 22.0 mph 62% 0.00 in 596 W/m2
10:47 54.1 °F 41.4 °F 30.20 in South 17.0 mph 22.0 mph 62% 0.00 in 587 W/m2
10:52 54.6 °F 41.8 °F 30.19 in SSE 22.0 mph 23.0 mph 62% 0.00 in 568 W/m2
10:57 55.2 °F 41.5 °F 30.19 in SSE 10.0 mph 23.0 mph 60% 0.00 in 547 W/m2
11:02 55.3 °F 41.2 °F 30.19 in South 14.0 mph 22.0 mph 59% 0.00 in 534 W/m2
11:07 56.3 °F 41.7 °F 30.19 in South 16.0 mph 26.0 mph 58% 0.00 in 541 W/m2
11:12 55.6 °F 40.1 °F 30.19 in South 16.0 mph 27.0 mph 56% 0.00 in 626 W/m2
11:17 55.7 °F 41.6 °F 30.19 in SSW 22.0 mph 28.0 mph 59% 0.00 in 619 W/m2
11:22 56.7 °F 41.6 °F 30.19 in South 14.0 mph 28.0 mph 57% 0.00 in 643 W/m2
11:27 57.0 °F 40.5 °F 30.19 in SSE 20.0 mph 25.0 mph 54% 0.00 in 696 W/m2
11:32 56.9 °F 40.9 °F 30.19 in South 16.0 mph 26.0 mph 55% 0.00 in 717 W/m2
11:37 57.4 °F 40.9 °F 30.19 in SSE 21.0 mph 26.0 mph 54% 0.00 in 735 W/m2
11:42 57.6 °F 41.1 °F 30.19 in South 22.0 mph 25.0 mph 54% 0.00 in 795 W/m2
11:47 57.8 °F 40.3 °F 30.19 in South 20.0 mph 26.0 mph 52% 0.00 in 788 W/m2
11:52 58.0 °F 41.0 °F 30.19 in SSE 13.0 mph 26.0 mph 53% 0.00 in 765 W/m2
11:57 58.5 °F 40.4 °F 30.18 in South 26.0 mph 27.0 mph 51% 0.00 in 766 W/m2
12:02 58.3 °F 40.7 °F 30.19 in SSW 18.0 mph 27.0 mph 52% 0.00 in 777 W/m2
12:07 59.0 °F 40.4 °F 30.18 in South 15.0 mph 27.0 mph 50% 0.00 in 788 W/m2
12:12 58.7 °F 39.6 °F 30.18 in SSE 22.0 mph 28.0 mph 49% 0.00 in 788 W/m2
12:17 58.5 °F 39.9 °F 30.18 in South 27.0 mph 28.0 mph 50% 0.00 in 802 W/m2
12:22 58.9 °F 39.8 °F 30.18 in South 23.0 mph 27.0 mph 49% 0.00 in 803 W/m2
12:27 58.8 °F 39.7 °F 30.18 in South 22.0 mph 30.0 mph 49% 0.00 in 807 W/m2
12:29 59.2 °F 40.6 °F 30.18 in SSE 17.0 mph 30.0 mph 50% 0.00 in 810 W/m2
12:34 59.5 °F 40.3 °F 30.17 in SSE 24.0 mph 30.0 mph 49% 0.00 in 819 W/m2
12:39 59.1 °F 39.9 °F 30.17 in SSW 20.0 mph 26.0 mph 49% 0.00 in 828 W/m2
12:44 59.3 °F 39.6 °F 30.17 in South 15.0 mph 28.0 mph 48% 0.00 in 833 W/m2
12:49 59.7 °F 40.0 °F 30.17 in SSW 29.0 mph 29.0 mph 48% 0.00 in 867 W/m2
12:54 59.3 °F 39.6 °F 30.17 in SSE 20.0 mph 29.0 mph 48% 0.00 in 940 W/m2
12:59 59.7 °F 40.0 °F 30.17 in SSE 20.0 mph 29.0 mph 48% 0.00 in 863 W/m2
13:09 60.5 °F 39.6 °F 30.16 in SSE 17.0 mph 32.0 mph 46% 0.00 in 902 W/m2
13:14 60.5 °F 39.6 °F 30.16 in SSE 20.0 mph 32.0 mph 46% 0.00 in 863 W/m2
13:19 60.3 °F 39.4 °F 30.16 in South 27.0 mph 33.0 mph 46% 0.00 in 902 W/m2
13:24 60.4 °F 39.5 °F 30.16 in South 16.0 mph 33.0 mph 46% 0.00 in 707 W/m2
13:29 60.6 °F 40.2 °F 30.16 in South 14.0 mph 27.0 mph 47% 0.00 in 886 W/m2
13:34 60.8 °F 40.4 °F 30.15 in South 17.0 mph 25.0 mph 47% 0.00 in 896 W/m2
13:39 61.5 °F 39.4 °F 30.15 in SSE 15.0 mph 29.0 mph 44% 0.00 in 909 W/m2
13:44 61.8 °F 39.6 °F 30.15 in South 23.0 mph 29.0 mph 44% 0.00 in 872 W/m2
13:49 61.5 °F 39.4 °F 30.15 in SSE 20.0 mph 28.0 mph 44% 0.00 in 867 W/m2
13:54 61.5 °F 39.4 °F 30.15 in SSW 25.0 mph 28.0 mph 44% 0.00 in 860 W/m2
13:59 61.7 °F 39.0 °F 30.14 in South 11.0 mph 27.0 mph 43% 0.00 in 840 W/m2
14:04 61.7 °F 38.4 °F 30.14 in SSE 23.0 mph 33.0 mph 42% 0.00 in 860 W/m2
14:09 61.8 °F 39.1 °F 30.14 in South 23.0 mph 33.0 mph 43% 0.00 in 847 W/m2
14:14 61.9 °F 38.5 °F 30.14 in SSE 23.0 mph 28.0 mph 42% 0.00 in 851 W/m2
14:19 61.8 °F 39.1 °F 30.15 in SSE 21.0 mph 31.0 mph 43% 0.00 in 847 W/m2
14:24 61.4 °F 39.3 °F 30.14 in South 17.0 mph 31.0 mph 44% 0.00 in 844 W/m2
14:29 61.5 °F 39.4 °F 30.14 in SSE 14.0 mph 28.0 mph 44% 0.00 in 840 W/m2
14:34 61.3 °F 38.6 °F 30.14 in South 16.0 mph 28.0 mph 43% 0.00 in 842 W/m2
14:39 61.1 °F 37.8 °F 30.14 in SE 27.0 mph 35.0 mph 42% 0.00 in 835 W/m2
14:44 61.0 °F 38.3 °F 30.14 in SSE 23.0 mph 35.0 mph 43% 0.00 in 831 W/m2
14:49 61.3 °F 39.8 °F 30.14 in SSE 22.0 mph 30.0 mph 45% 0.00 in 830 W/m2
14:54 61.5 °F 38.8 °F 30.14 in SSE 24.0 mph 30.0 mph 43% 0.00 in 823 W/m2
14:59 61.5 °F 39.4 °F 30.14 in SE 24.0 mph 30.0 mph 44% 0.00 in 816 W/m2
15:04 61.7 °F 39.6 °F 30.14 in SSE 18.0 mph 30.0 mph 44% 0.00 in 816 W/m2
15:09 61.5 °F 38.8 °F 30.14 in SSE 15.0 mph 32.0 mph 43% 0.00 in 810 W/m2
15:14 61.2 °F 39.1 °F 30.14 in SE 22.0 mph 32.0 mph 44% 0.00 in 802 W/m2
15:19 61.4 °F 39.3 °F 30.13 in SSE 29.0 mph 31.0 mph 44% 0.00 in 793 W/m2
15:24 61.2 °F 39.1 °F 30.14 in South 12.0 mph 31.0 mph 44% 0.00 in 786 W/m2
15:29 61.7 °F 39.6 °F 30.13 in South 15.0 mph 29.0 mph 44% 0.00 in 782 W/m2
15:34 62.0 °F 39.2 °F 30.13 in South 18.0 mph 24.0 mph 43% 0.00 in 768 W/m2
15:39 62.3 °F 39.4 °F 30.13 in SSW 16.0 mph 24.0 mph 43% 0.00 in 763 W/m2
15:44 61.8 °F 39.1 °F 30.13 in SSE 16.0 mph 28.0 mph 43% 0.00 in 758 W/m2
15:49 61.8 °F 39.1 °F 30.13 in SSE 17.0 mph 28.0 mph 43% 0.00 in 751 W/m2
15:54 61.8 °F 39.1 °F 30.13 in SSE 17.0 mph 24.0 mph 43% 0.00 in 738 W/m2
15:59 62.1 °F 39.3 °F 30.13 in SSE 16.0 mph 27.0 mph 43% 0.00 in 728 W/m2
16:04 61.7 °F 39.0 °F 30.13 in SSE 13.0 mph 27.0 mph 43% 0.00 in 726 W/m2
Bismarck, North Dakota, USA
Compliments of Weather Underground - 4 mb